createdAt,value
2018-05-24T00:00:17.585Z,0
2018-05-24T00:01:27.308Z,0
2018-05-24T00:02:37.278Z,0
2018-05-24T00:03:46.994Z,0
2018-05-24T00:04:56.180Z,0
2018-05-24T00:06:06.155Z,0
2018-05-24T00:07:15.892Z,0
2018-05-24T00:08:25.865Z,0
2018-05-24T00:09:35.584Z,0
2018-05-24T00:10:45.317Z,0
2018-05-24T00:11:55.290Z,0
2018-05-24T00:13:05.285Z,0
2018-05-24T00:14:15.256Z,0
2018-05-24T00:15:25.046Z,0
2018-05-24T00:16:34.780Z,0
2018-05-24T00:17:44.764Z,0
2018-05-24T00:18:54.804Z,0
2018-05-24T00:20:04.638Z,0
2018-05-24T00:21:14.609Z,0
2018-05-24T00:22:24.575Z,0
2018-05-24T00:23:34.292Z,0
2018-05-24T00:24:44.006Z,0
2018-05-24T00:25:53.744Z,0
2018-05-24T00:27:03.451Z,0
2018-05-24T00:28:13.425Z,0
2018-05-24T00:29:23.152Z,0
2018-05-24T00:30:32.967Z,0
2018-05-24T00:31:42.697Z,0
2018-05-24T00:32:52.415Z,0
2018-05-24T00:34:02.388Z,0
2018-05-24T00:35:12.116Z,0
2018-05-24T00:36:22.104Z,0
2018-05-24T00:37:31.819Z,0
2018-05-24T00:38:41.544Z,0
2018-05-24T00:39:51.265Z,0
2018-05-24T00:41:01.235Z,0
2018-05-24T00:42:10.709Z,0
2018-05-24T00:43:20.412Z,0
2018-05-24T00:44:30.391Z,0
2018-05-24T00:45:40.366Z,0
2018-05-24T00:46:50.072Z,0
2018-05-24T00:48:00.034Z,0
2018-05-24T00:49:09.772Z,0
2018-05-24T00:50:19.747Z,0
2018-05-24T00:51:29.802Z,0
2018-05-24T00:52:39.525Z,0
2018-05-24T00:53:49.493Z,0
2018-05-24T00:54:58.965Z,0
2018-05-24T00:56:08.943Z,0
2018-05-24T00:57:18.933Z,0
2018-05-24T00:58:28.924Z,0
2018-05-24T00:59:38.901Z,0
2018-05-24T01:00:48.861Z,0
2018-05-24T01:01:58.577Z,0
2018-05-24T01:03:08.556Z,0
2018-05-24T01:04:18.292Z,0
2018-05-24T01:05:28.268Z,0
2018-05-24T01:06:38.243Z,0
2018-05-24T01:07:48.212Z,0
2018-05-24T01:08:58.186Z,0
2018-05-24T01:10:08.167Z,0
2018-05-24T01:11:18.157Z,0
2018-05-24T01:12:28.147Z,0
2018-05-24T01:13:38.105Z,0
2018-05-24T01:14:48.096Z,0
2018-05-24T01:15:58.371Z,0
2018-05-24T01:17:08.110Z,0
2018-05-24T01:18:18.083Z,0
2018-05-24T01:19:27.801Z,0
2018-05-24T01:20:37.793Z,0
2018-05-24T01:21:47.259Z,0
2018-05-24T01:22:57.221Z,0
2018-05-24T01:24:06.921Z,0
2018-05-24T01:25:16.886Z,0
2018-05-24T01:26:26.867Z,0
2018-05-24T01:27:36.838Z,0
2018-05-24T01:28:46.282Z,0
2018-05-24T01:29:56.247Z,0
2018-05-24T01:31:06.211Z,0
2018-05-24T01:32:16.181Z,0
2018-05-24T01:33:25.903Z,0
2018-05-24T01:34:35.894Z,0
2018-05-24T01:35:45.869Z,0
2018-05-24T01:36:55.844Z,0
2018-05-24T01:38:05.299Z,0
2018-05-24T01:39:15.016Z,0
2018-05-24T01:40:25.002Z,0
2018-05-24T01:41:34.994Z,0
2018-05-24T01:42:44.715Z,0
2018-05-24T01:43:54.721Z,0
2018-05-24T01:45:04.460Z,0
2018-05-24T01:46:14.435Z,0
2018-05-24T01:47:24.160Z,0
2018-05-24T01:48:34.138Z,0
2018-05-24T01:49:44.131Z,0
2018-05-24T01:50:53.858Z,0
2018-05-24T01:52:03.308Z,0
2018-05-24T01:53:13.023Z,0
2018-05-24T01:54:23.001Z,0
2018-05-24T01:55:32.724Z,0
2018-05-24T01:56:42.702Z,0
2018-05-24T01:57:52.423Z,0
2018-05-24T01:59:02.139Z,0
2018-05-24T02:00:11.861Z,0
2018-05-24T02:01:21.843Z,0
2018-05-24T02:02:31.842Z,0
2018-05-24T02:03:41.814Z,0
2018-05-24T02:04:51.814Z,0
2018-05-24T02:06:01.775Z,0
2018-05-24T02:07:11.741Z,0
2018-05-24T02:08:21.189Z,0
2018-05-24T02:09:31.158Z,0
2018-05-24T02:10:41.135Z,0
2018-05-24T02:11:51.121Z,0
2018-05-24T02:13:01.109Z,0
2018-05-24T02:14:11.085Z,0
2018-05-24T02:15:20.800Z,0
2018-05-24T02:16:30.764Z,0
2018-05-24T02:17:40.474Z,0
2018-05-24T02:18:50.430Z,0
2018-05-24T02:20:00.139Z,0
2018-05-24T02:21:09.825Z,0
2018-05-24T02:22:19.784Z,0
2018-05-24T02:23:29.768Z,0
2018-05-24T02:24:39.748Z,0
2018-05-24T02:25:49.909Z,0
2018-05-24T02:26:59.877Z,0
2018-05-24T02:28:09.839Z,0
2018-05-24T02:29:19.624Z,0
2018-05-24T02:30:29.602Z,0
2018-05-24T02:31:39.320Z,0
2018-05-24T02:32:49.040Z,0
2018-05-24T02:33:59.027Z,0
2018-05-24T02:35:09.027Z,0
2018-05-24T02:36:18.995Z,0
2018-05-24T02:37:28.963Z,0
2018-05-24T02:38:38.936Z,0
2018-05-24T02:39:49.001Z,0
2018-05-24T02:40:58.709Z,0
2018-05-24T02:42:08.423Z,0
2018-05-24T02:43:17.907Z,0
2018-05-24T02:44:27.887Z,5
2018-05-24T02:45:37.871Z,5
2018-05-24T02:46:47.833Z,5
2018-05-24T02:47:57.814Z,5
2018-05-24T02:49:07.776Z,5
2018-05-24T02:50:17.754Z,5
2018-05-24T02:51:27.732Z,5
2018-05-24T02:52:37.720Z,10
2018-05-24T02:53:47.691Z,10
2018-05-24T02:54:57.662Z,10
2018-05-24T02:56:07.372Z,10
2018-05-24T02:57:17.087Z,15
2018-05-24T02:58:26.817Z,15
2018-05-24T02:59:36.782Z,15
2018-05-24T03:00:46.747Z,15
2018-05-24T03:01:56.439Z,20
2018-05-24T03:03:06.414Z,20
2018-05-24T03:04:16.390Z,25
2018-05-24T03:05:26.091Z,25
2018-05-24T03:06:36.069Z,25
2018-05-24T03:07:45.786Z,30
2018-05-24T03:08:55.520Z,30
2018-05-24T03:10:05.487Z,35
2018-05-24T03:11:15.209Z,40
2018-05-24T03:12:25.194Z,40
2018-05-24T03:13:35.177Z,45
2018-05-24T03:14:44.381Z,55
2018-05-24T03:15:54.371Z,55
2018-05-24T03:17:04.343Z,55
2018-05-24T03:18:14.315Z,60
2018-05-24T03:19:24.334Z,60
2018-05-24T03:20:34.042Z,65
2018-05-24T03:21:44.009Z,70
2018-05-24T03:22:53.726Z,70
2018-05-24T03:24:03.440Z,70
2018-05-24T03:25:13.411Z,70
2018-05-24T03:26:22.862Z,75
2018-05-24T03:27:32.571Z,75
2018-05-24T03:28:42.539Z,80
2018-05-24T03:29:52.497Z,85
2018-05-24T03:31:02.482Z,85
2018-05-24T03:32:12.198Z,90
2018-05-24T03:33:21.917Z,90
2018-05-24T03:34:31.643Z,95
2018-05-24T03:35:41.605Z,100
2018-05-24T03:36:51.323Z,105
2018-05-24T03:38:01.296Z,105
2018-05-24T03:39:11.003Z,110
2018-05-24T03:40:20.736Z,115
2018-05-24T03:41:30.703Z,115
2018-05-24T03:42:40.423Z,120
2018-05-24T03:43:50.394Z,125
2018-05-24T03:45:00.112Z,125
2018-05-24T03:46:09.825Z,130
2018-05-24T03:47:19.543Z,130
2018-05-24T03:48:29.533Z,135
2018-05-24T03:49:39.236Z,135
2018-05-24T03:50:49.275Z,140
2018-05-24T03:51:59.014Z,140
2018-05-24T03:53:09.000Z,145
2018-05-24T03:54:18.977Z,145
2018-05-24T03:55:28.945Z,150
2018-05-24T03:56:38.924Z,150
2018-05-24T03:57:49.002Z,155
2018-05-24T03:58:58.976Z,155
2018-05-24T04:00:08.708Z,155
2018-05-24T04:01:18.424Z,160
2018-05-24T04:02:28.139Z,160
2018-05-24T04:03:37.862Z,165
2018-05-24T04:04:47.575Z,165
2018-05-24T04:05:57.652Z,165
2018-05-24T04:07:07.649Z,165
2018-05-24T04:08:17.621Z,165
2018-05-24T04:09:27.629Z,170
2018-05-24T04:10:37.342Z,170
2018-05-24T04:11:47.045Z,175
2018-05-24T04:12:56.764Z,175
2018-05-24T04:14:06.741Z,175
2018-05-24T04:15:16.721Z,180
2018-05-24T04:16:26.697Z,180
2018-05-24T04:17:36.672Z,180
2018-05-24T04:18:46.643Z,185
2018-05-24T04:19:56.348Z,185
2018-05-24T04:21:06.327Z,185
2018-05-24T04:22:16.297Z,190
2018-05-24T04:23:26.354Z,190
2018-05-24T04:24:36.319Z,190
2018-05-24T04:25:46.295Z,195
2018-05-24T04:26:56.358Z,195
2018-05-24T04:28:06.338Z,200
2018-05-24T04:29:16.328Z,200
2018-05-24T04:30:26.307Z,205
2018-05-24T04:31:36.279Z,210
2018-05-24T04:32:46.002Z,210
2018-05-24T04:33:55.737Z,215
2018-05-24T04:35:05.813Z,215
2018-05-24T04:36:15.790Z,220
2018-05-24T04:37:25.501Z,220
2018-05-24T04:38:35.216Z,225
2018-05-24T04:39:45.186Z,230
2018-05-24T04:40:55.147Z,235
2018-05-24T04:42:05.125Z,235
2018-05-24T04:43:14.835Z,240
2018-05-24T04:44:24.804Z,245
2018-05-24T04:45:35.286Z,245
2018-05-24T04:46:45.275Z,250
2018-05-24T04:47:55.250Z,250
2018-05-24T04:49:04.699Z,260
2018-05-24T04:50:14.423Z,255
2018-05-24T04:51:24.394Z,260
2018-05-24T04:52:34.401Z,260
2018-05-24T04:53:44.363Z,260
2018-05-24T04:54:54.360Z,265
2018-05-24T04:56:04.335Z,265
2018-05-24T04:57:14.390Z,270
2018-05-24T04:58:24.367Z,270
2018-05-24T04:59:34.091Z,275
2018-05-24T05:00:44.077Z,280
2018-05-24T05:01:54.144Z,280
2018-05-24T05:03:04.143Z,285
2018-05-24T05:04:14.129Z,285
2018-05-24T05:05:24.107Z,290
2018-05-24T05:06:34.096Z,290
2018-05-24T05:07:44.065Z,295
2018-05-24T05:08:54.030Z,300
2018-05-24T05:10:04.027Z,305
2018-05-24T05:11:14.006Z,310
2018-05-24T05:12:23.974Z,315
2018-05-24T05:13:33.847Z,320
2018-05-24T05:14:44.220Z,320
2018-05-24T05:15:54.286Z,325
2018-05-24T05:17:04.282Z,325
2018-05-24T05:18:14.012Z,330
2018-05-24T05:19:24.147Z,335
2018-05-24T05:20:34.142Z,340
2018-05-24T05:21:44.113Z,340
2018-05-24T05:22:54.103Z,345
2018-05-24T05:24:04.095Z,345
2018-05-24T05:25:14.244Z,345
2018-05-24T05:26:24.229Z,350
2018-05-24T05:27:34.208Z,350
2018-05-24T05:28:44.185Z,345
2018-05-24T05:29:54.172Z,345
2018-05-24T05:31:04.164Z,345
2018-05-24T05:32:14.149Z,345
2018-05-24T05:33:23.881Z,350
2018-05-24T05:34:33.848Z,350
2018-05-24T05:35:43.928Z,350
2018-05-24T05:36:53.903Z,350
2018-05-24T05:38:03.900Z,350
2018-05-24T05:39:13.365Z,355
2018-05-24T05:40:23.100Z,355
2018-05-24T05:41:32.817Z,360
2018-05-24T05:42:42.798Z,360
2018-05-24T05:43:52.504Z,355
2018-05-24T05:45:02.535Z,360
2018-05-24T05:46:12.596Z,360
2018-05-24T05:47:22.576Z,365
2018-05-24T05:48:32.563Z,365
2018-05-24T05:49:42.284Z,365
2018-05-24T05:50:52.269Z,365
2018-05-24T05:52:02.593Z,375
2018-05-24T05:53:12.597Z,375
2018-05-24T05:54:22.568Z,370
2018-05-24T05:55:32.534Z,370
2018-05-24T05:56:42.514Z,370
2018-05-24T05:57:52.240Z,370
2018-05-24T05:59:02.279Z,375
2018-05-24T06:00:12.251Z,375
2018-05-24T06:01:22.230Z,375
2018-05-24T06:02:32.199Z,375
2018-05-24T06:03:42.216Z,380
2018-05-24T06:04:51.941Z,380
2018-05-24T06:06:01.935Z,385
2018-05-24T06:07:11.942Z,380
2018-05-24T06:08:21.939Z,380
2018-05-24T06:09:31.923Z,385
2018-05-24T06:10:41.886Z,390
2018-05-24T06:11:51.859Z,390
2018-05-24T06:13:01.846Z,390
2018-05-24T06:14:11.574Z,390
2018-05-24T06:15:21.783Z,390
2018-05-24T06:16:31.525Z,390
2018-05-24T06:17:41.604Z,385
2018-05-24T06:18:51.076Z,395
2018-05-24T06:20:01.061Z,395
2018-05-24T06:21:10.886Z,395
2018-05-24T06:22:20.888Z,400
2018-05-24T06:23:30.881Z,400
2018-05-24T06:24:40.612Z,400
2018-05-24T06:25:50.091Z,405
2018-05-24T06:27:00.093Z,400
2018-05-24T06:28:10.095Z,395
2018-05-24T06:29:19.874Z,385
2018-05-24T06:30:29.597Z,385
2018-05-24T06:31:39.592Z,380
2018-05-24T06:32:49.670Z,385
2018-05-24T06:33:59.656Z,370
2018-05-24T06:35:09.659Z,360
2018-05-24T06:36:19.725Z,355
2018-05-24T06:37:29.805Z,350
2018-05-24T06:38:39.828Z,350
2018-05-24T06:39:49.672Z,335
2018-05-24T06:40:59.668Z,335
2018-05-24T06:42:09.667Z,335
2018-05-24T06:43:19.668Z,335
2018-05-24T06:44:29.689Z,355
2018-05-24T06:45:39.669Z,355
2018-05-24T06:46:49.658Z,360
2018-05-24T06:47:59.671Z,360
2018-05-24T06:49:09.745Z,360
2018-05-24T06:50:19.982Z,375
2018-05-24T06:51:29.726Z,385
2018-05-24T06:52:39.738Z,390
2018-05-24T06:53:50.141Z,390
2018-05-24T06:54:59.886Z,400
2018-05-24T06:56:09.875Z,410
2018-05-24T06:57:19.902Z,410
2018-05-24T06:58:29.666Z,415
2018-05-24T06:59:39.132Z,420
2018-05-24T07:00:48.877Z,420
2018-05-24T07:01:58.865Z,425
2018-05-24T07:03:08.958Z,430
2018-05-24T07:04:18.783Z,435
2018-05-24T07:05:28.518Z,440
2018-05-24T07:06:38.523Z,450
2018-05-24T07:07:48.270Z,450
2018-05-24T07:08:58.003Z,455
2018-05-24T07:10:08.006Z,460
2018-05-24T07:11:18.146Z,465
2018-05-24T07:12:28.156Z,470
2018-05-24T07:13:38.153Z,475
2018-05-24T07:14:48.186Z,490
2018-05-24T07:15:58.197Z,490
2018-05-24T07:17:08.198Z,495
2018-05-24T07:18:18.193Z,495
2018-05-24T07:19:28.213Z,505
2018-05-24T07:20:38.228Z,510
2018-05-24T07:21:47.948Z,520
2018-05-24T07:22:57.699Z,525
2018-05-24T07:24:07.745Z,535
2018-05-24T07:25:17.467Z,540
2018-05-24T07:26:27.444Z,550
2018-05-24T07:27:37.189Z,555
2018-05-24T07:28:47.206Z,560
2018-05-24T07:29:57.045Z,560
2018-05-24T07:31:07.042Z,565
2018-05-24T07:32:17.042Z,570
2018-05-24T07:33:27.076Z,570
2018-05-24T07:34:37.075Z,575
2018-05-24T07:35:47.073Z,575
2018-05-24T07:36:57.083Z,580
2018-05-24T07:38:06.572Z,585
2018-05-24T07:39:16.049Z,585
2018-05-24T07:40:26.039Z,585
2018-05-24T07:41:35.795Z,585
2018-05-24T07:42:44.756Z,585
2018-05-24T07:43:54.763Z,590
2018-05-24T07:45:04.692Z,590
2018-05-24T07:46:14.187Z,585
2018-05-24T07:47:23.944Z,590
2018-05-24T07:48:33.454Z,590
2018-05-24T07:49:42.933Z,585
2018-05-24T07:50:52.678Z,580
2018-05-24T07:52:02.703Z,575
2018-05-24T07:53:12.712Z,570
2018-05-24T07:54:22.455Z,560
2018-05-24T07:55:32.197Z,565
2018-05-24T07:56:42.245Z,575
2018-05-24T07:57:51.708Z,585
2018-05-24T07:59:01.478Z,590
2018-05-24T08:00:11.289Z,590
2018-05-24T08:01:21.010Z,590
2018-05-24T08:02:31.072Z,590
2018-05-24T08:03:41.053Z,590
2018-05-24T08:04:50.805Z,580
2018-05-24T08:06:00.785Z,575
2018-05-24T08:07:10.237Z,565
2018-05-24T08:08:19.956Z,555
2018-05-24T08:09:29.693Z,540
2018-05-24T08:10:39.662Z,535
2018-05-24T08:11:49.405Z,525
2018-05-24T08:12:59.412Z,525
2018-05-24T08:14:09.397Z,530
2018-05-24T08:15:18.341Z,530
2018-05-24T08:16:28.336Z,530
2018-05-24T08:17:38.392Z,520
2018-05-24T08:18:48.424Z,510
2018-05-24T08:19:58.424Z,505
2018-05-24T08:21:08.166Z,505
2018-05-24T08:22:18.208Z,515
2018-05-24T08:23:28.325Z,525
2018-05-24T08:24:38.436Z,525
2018-05-24T08:25:48.164Z,530
2018-05-24T08:26:57.896Z,535
2018-05-24T08:28:07.674Z,595
2018-05-24T08:29:17.169Z,855
2018-05-24T08:30:27.204Z,985
2018-05-24T08:31:37.224Z,845
2018-05-24T08:32:47.237Z,820
2018-05-24T08:33:57.230Z,1060
2018-05-24T08:35:07.042Z,1170
2018-05-24T08:36:16.789Z,1190
2018-05-24T08:37:26.831Z,1000
2018-05-24T08:38:36.861Z,920
2018-05-24T08:39:47.122Z,940
2018-05-24T08:40:57.443Z,1130
2018-05-24T08:42:07.503Z,1265
2018-05-24T08:43:17.227Z,1030
2018-05-24T08:44:26.705Z,940
2018-05-24T08:45:36.982Z,935
2018-05-24T08:46:47.018Z,965
2018-05-24T08:47:57.014Z,1125
2018-05-24T08:49:07.016Z,1140
2018-05-24T08:50:17.022Z,1165
2018-05-24T08:51:27.041Z,1050
2018-05-24T08:52:37.060Z,1180
2018-05-24T08:53:46.810Z,1115
2018-05-24T08:54:56.871Z,1160
2018-05-24T08:56:06.898Z,935
2018-05-24T08:57:16.679Z,810
2018-05-24T08:58:26.477Z,835
2018-05-24T08:59:36.224Z,840
2018-05-24T09:00:46.223Z,905
2018-05-24T09:01:56.230Z,965
2018-05-24T09:03:06.232Z,1045
2018-05-24T09:04:16.268Z,1250
2018-05-24T09:05:26.264Z,1250
2018-05-24T09:06:36.282Z,860
2018-05-24T09:07:46.025Z,1105
2018-05-24T09:08:55.824Z,1215
2018-05-24T09:10:05.297Z,1375
2018-05-24T09:11:15.301Z,1520
2018-05-24T09:12:25.314Z,1560
2018-05-24T09:13:35.335Z,1600
2018-05-24T09:14:44.839Z,1650
2018-05-24T09:15:54.848Z,1705
2018-05-24T09:17:04.847Z,1710
2018-05-24T09:18:14.825Z,1765
2018-05-24T09:19:24.545Z,1825
2018-05-24T09:20:34.532Z,1770
2018-05-24T09:21:44.638Z,1715
2018-05-24T09:22:54.717Z,1895
2018-05-24T09:24:04.702Z,1940
2018-05-24T09:25:14.703Z,2105
2018-05-24T09:26:24.716Z,2100
2018-05-24T09:27:34.745Z,1930
2018-05-24T09:28:44.518Z,1995
2018-05-24T09:29:54.536Z,1870
2018-05-24T09:31:04.525Z,1885
2018-05-24T09:32:14.535Z,1875
2018-05-24T09:33:24.274Z,1555
2018-05-24T09:34:33.766Z,1700
2018-05-24T09:35:43.495Z,1845
2018-05-24T09:36:53.510Z,1875
2018-05-24T09:38:03.253Z,1950
2018-05-24T09:39:12.184Z,2030
2018-05-24T09:40:22.194Z,2125
2018-05-24T09:41:31.933Z,2055
2018-05-24T09:42:41.945Z,2095
2018-05-24T09:43:51.714Z,2130
2018-05-24T09:45:01.477Z,2140
2018-05-24T09:46:11.230Z,2115
2018-05-24T09:47:20.964Z,2070
2018-05-24T09:48:30.717Z,2045
2018-05-24T09:49:40.462Z,2090
2018-05-24T09:50:49.974Z,2155
2018-05-24T09:51:59.719Z,2165
2018-05-24T09:53:09.711Z,2160
2018-05-24T09:54:19.466Z,2075
2018-05-24T09:55:30.125Z,2205
2018-05-24T09:56:39.603Z,2255
2018-05-24T09:57:49.609Z,2185
2018-05-24T09:58:59.344Z,2145
2018-05-24T10:00:09.340Z,2245
2018-05-24T10:01:19.084Z,2330
2018-05-24T10:02:28.820Z,2435
2018-05-24T10:03:38.844Z,2395
2018-05-24T10:04:48.610Z,2315
2018-05-24T10:05:58.613Z,2345
2018-05-24T10:07:08.657Z,2380
2018-05-24T10:08:18.701Z,2420
2018-05-24T10:09:28.447Z,2330
2018-05-24T10:10:38.638Z,2380
2018-05-24T10:11:48.658Z,2340
2018-05-24T10:12:58.399Z,2410
2018-05-24T10:14:08.171Z,1325
2018-05-24T10:15:18.202Z,2625
2018-05-24T10:16:29.027Z,1245
2018-05-24T10:17:39.137Z,905
2018-05-24T10:18:49.159Z,2600
2018-05-24T10:19:59.182Z,2600
2018-05-24T10:21:08.928Z,2605
2018-05-24T10:22:19.017Z,2625
2018-05-24T10:23:29.101Z,2605
2018-05-24T10:24:39.100Z,2380
2018-05-24T10:25:49.104Z,2265
2018-05-24T10:26:58.859Z,1705
2018-05-24T10:28:08.953Z,2260
2018-05-24T10:29:18.870Z,2570
2018-05-24T10:30:28.546Z,2435
2018-05-24T10:31:38.553Z,2485
2018-05-24T10:32:48.595Z,2625
2018-05-24T10:33:58.713Z,2480
2018-05-24T10:35:08.760Z,2580
2018-05-24T10:36:18.749Z,2645
2018-05-24T10:37:28.750Z,1150
2018-05-24T10:38:38.229Z,2805
2018-05-24T10:39:48.005Z,1210
2018-05-24T10:40:58.015Z,2805
2018-05-24T10:42:08.021Z,2660
2018-05-24T10:43:17.752Z,810
2018-05-24T10:44:27.223Z,2650
2018-05-24T10:45:37.228Z,2635
2018-05-24T10:46:46.956Z,2645
2018-05-24T10:47:56.692Z,2725
2018-05-24T10:49:06.259Z,2810
2018-05-24T10:50:16.013Z,2855
2018-05-24T10:51:26.465Z,2820
2018-05-24T10:52:36.210Z,2805
2018-05-24T10:53:45.950Z,2755
2018-05-24T10:54:55.948Z,2665
2018-05-24T10:56:06.019Z,2640
2018-05-24T10:57:16.145Z,2660
2018-05-24T10:58:26.149Z,2725
2018-05-24T10:59:36.061Z,2795
2018-05-24T11:00:46.061Z,2855
2018-05-24T11:01:55.785Z,2725
2018-05-24T11:03:06.193Z,2740
2018-05-24T11:04:15.942Z,2810
2018-05-24T11:05:25.419Z,2830
2018-05-24T11:06:35.586Z,2775
2018-05-24T11:07:45.331Z,2865
2018-05-24T11:08:55.323Z,3065
2018-05-24T11:10:05.318Z,2995
2018-05-24T11:11:15.367Z,2960
2018-05-24T11:12:25.489Z,2885
2018-05-24T11:13:35.252Z,2905
2018-05-24T11:14:45.246Z,2960
2018-05-24T11:15:54.973Z,2860
2018-05-24T11:17:04.956Z,2860
2018-05-24T11:18:14.698Z,2855
2018-05-24T11:19:24.696Z,2910
2018-05-24T11:20:34.684Z,2950
2018-05-24T11:21:44.680Z,2830
2018-05-24T11:22:54.681Z,2810
2018-05-24T11:24:04.730Z,2925
2018-05-24T11:25:14.907Z,2975
2018-05-24T11:26:24.868Z,3055
2018-05-24T11:27:34.880Z,3065
2018-05-24T11:28:44.627Z,3060
2018-05-24T11:29:54.651Z,2995
2018-05-24T11:31:04.400Z,835
2018-05-24T11:32:14.617Z,3125
2018-05-24T11:33:24.110Z,3130
2018-05-24T11:34:33.844Z,3105
2018-05-24T11:35:43.593Z,3055
2018-05-24T11:36:53.321Z,3055
2018-05-24T11:38:03.337Z,3035
2018-05-24T11:39:13.347Z,3055
2018-05-24T11:40:23.132Z,3140
2018-05-24T11:41:33.128Z,3205
2018-05-24T11:42:42.852Z,3125
2018-05-24T11:43:52.844Z,3070
2018-05-24T11:45:02.857Z,3020
2018-05-24T11:46:12.863Z,3010
2018-05-24T11:47:22.597Z,3080
2018-05-24T11:48:32.593Z,3070
2018-05-24T11:49:42.337Z,3055
2018-05-24T11:50:52.340Z,3160
2018-05-24T11:52:02.891Z,3295
2018-05-24T11:53:12.888Z,3325
2018-05-24T11:54:22.620Z,3295
2018-05-24T11:55:32.618Z,3270
2018-05-24T11:56:42.424Z,3260
2018-05-24T11:57:52.416Z,3345
2018-05-24T11:59:02.149Z,3315
2018-05-24T12:00:12.190Z,3125
2018-05-24T12:01:21.940Z,3125
2018-05-24T12:02:31.672Z,3325
2018-05-24T12:03:41.430Z,3405
2018-05-24T12:04:51.427Z,3375
2018-05-24T12:06:01.174Z,3335
2018-05-24T12:07:11.446Z,3340
2018-05-24T12:08:21.465Z,3305
2018-05-24T12:09:31.466Z,3230
2018-05-24T12:10:41.461Z,3260
2018-05-24T12:11:51.463Z,3320
2018-05-24T12:13:01.466Z,3375
2018-05-24T12:14:11.210Z,3390
2018-05-24T12:15:21.219Z,3275
2018-05-24T12:16:31.237Z,3235
2018-05-24T12:17:40.972Z,3270
2018-05-24T12:18:50.958Z,3310
2018-05-24T12:20:00.973Z,3305
2018-05-24T12:21:10.963Z,3360
2018-05-24T12:22:20.697Z,3435
2018-05-24T12:23:30.702Z,3490
2018-05-24T12:24:40.426Z,3600
2018-05-24T12:25:50.148Z,3655
2018-05-24T12:26:59.904Z,3530
2018-05-24T12:28:09.889Z,3375
2018-05-24T12:29:20.256Z,3345
2018-05-24T12:30:30.258Z,3360
2018-05-24T12:31:39.985Z,3275
2018-05-24T12:32:49.975Z,3295
2018-05-24T12:33:59.976Z,3395
2018-05-24T12:35:09.735Z,3555
2018-05-24T12:36:19.475Z,3550
2018-05-24T12:37:29.205Z,3515
2018-05-24T12:38:38.965Z,3570
2018-05-24T12:39:48.956Z,3550
2018-05-24T12:40:59.252Z,3430
2018-05-24T12:42:09.252Z,3350
2018-05-24T12:43:19.234Z,3360
2018-05-24T12:44:28.978Z,3465
2018-05-24T12:45:38.507Z,3485
2018-05-24T12:46:48.506Z,3525
2018-05-24T12:47:58.503Z,3570
2018-05-24T12:49:08.926Z,3555
2018-05-24T12:50:18.910Z,3585
2018-05-24T12:51:28.908Z,3520
2018-05-24T12:52:38.910Z,3430
2018-05-24T12:53:48.636Z,3170
2018-05-24T12:54:58.653Z,3460
2018-05-24T12:56:08.673Z,3300
2018-05-24T12:57:18.695Z,3360
2018-05-24T12:58:28.436Z,3435
2018-05-24T12:59:38.441Z,3460
2018-05-24T13:00:48.465Z,3565
2018-05-24T13:01:58.204Z,3725
2018-05-24T13:03:07.950Z,3670
2018-05-24T13:04:18.379Z,3800
2018-05-24T13:05:28.487Z,3890
2018-05-24T13:06:38.491Z,3745
2018-05-24T13:07:48.555Z,3630
2018-05-24T13:08:58.286Z,3530
2018-05-24T13:10:08.283Z,3710
2018-05-24T13:11:18.636Z,3660
2018-05-24T13:12:28.755Z,3625
2018-05-24T13:13:38.744Z,3515
2018-05-24T13:14:48.485Z,3325
2018-05-24T13:15:58.317Z,3595
2018-05-24T13:17:08.238Z,3520
2018-05-24T13:18:18.242Z,3370
2018-05-24T13:19:27.995Z,3455
2018-05-24T13:20:38.020Z,3600
2018-05-24T13:21:48.034Z,3695
2018-05-24T13:22:57.780Z,3660
2018-05-24T13:24:07.519Z,3650
2018-05-24T13:25:17.005Z,3675
2018-05-24T13:26:27.000Z,3640
2018-05-24T13:27:37.000Z,3600
2018-05-24T13:28:47.065Z,3595
2018-05-24T13:29:57.086Z,3605
2018-05-24T13:31:06.834Z,3560
2018-05-24T13:32:16.829Z,3465
2018-05-24T13:33:26.308Z,3490
2018-05-24T13:34:36.676Z,3580
2018-05-24T13:35:46.780Z,3565
2018-05-24T13:36:56.522Z,3460
2018-05-24T13:38:06.511Z,3415
2018-05-24T13:39:16.504Z,3295
2018-05-24T13:40:26.312Z,2940
2018-05-24T13:41:36.334Z,2730
2018-05-24T13:42:46.073Z,2645
2018-05-24T13:43:55.824Z,2675
2018-05-24T13:45:05.835Z,3000
2018-05-24T13:46:15.846Z,2855
2018-05-24T13:47:25.605Z,2940
2018-05-24T13:48:35.628Z,2905
2018-05-24T13:49:45.616Z,3070
2018-05-24T13:50:55.622Z,2910
2018-05-24T13:52:05.626Z,2815
2018-05-24T13:53:15.619Z,2620
2018-05-24T13:54:25.446Z,2515
2018-05-24T13:55:35.490Z,2775
2018-05-24T13:56:45.524Z,2870
2018-05-24T13:57:55.508Z,2720
2018-05-24T13:59:05.496Z,2750
2018-05-24T14:00:15.503Z,2770
2018-05-24T14:01:25.559Z,2685
2018-05-24T14:02:35.582Z,2835
2018-05-24T14:03:45.316Z,2860
2018-05-24T14:04:55.335Z,2810
2018-05-24T14:06:05.341Z,2595
2018-05-24T14:07:14.809Z,2700
2018-05-24T14:08:24.872Z,2730
2018-05-24T14:09:34.931Z,2810
2018-05-24T14:10:44.670Z,2450
2018-05-24T14:11:54.670Z,2010
2018-05-24T14:13:04.662Z,2100
2018-05-24T14:14:14.655Z,2175
2018-05-24T14:15:24.648Z,2135
2018-05-24T14:16:34.662Z,2025
2018-05-24T14:17:44.688Z,2430
2018-05-24T14:18:54.448Z,2635
2018-05-24T14:20:04.468Z,2825
2018-05-24T14:21:14.206Z,2425
2018-05-24T14:22:23.947Z,2880
2018-05-24T14:23:33.684Z,2785
2018-05-24T14:24:43.438Z,2740
2018-05-24T14:25:53.195Z,2680
2018-05-24T14:27:03.213Z,2480
2018-05-24T14:28:13.229Z,2395
2018-05-24T14:29:22.964Z,2340
2018-05-24T14:30:32.704Z,2220
2018-05-24T14:31:42.705Z,2250
2018-05-24T14:32:52.718Z,2285
2018-05-24T14:34:02.716Z,2325
2018-05-24T14:35:12.439Z,2300
2018-05-24T14:36:22.437Z,2100
2018-05-24T14:37:32.444Z,2165
2018-05-24T14:38:42.445Z,2410
2018-05-24T14:39:52.195Z,2375
2018-05-24T14:41:02.171Z,2300
2018-05-24T14:42:12.407Z,2290
2018-05-24T14:43:22.392Z,2235
2018-05-24T14:44:32.123Z,2240
2018-05-24T14:45:41.879Z,2165
2018-05-24T14:46:51.878Z,2025
2018-05-24T14:48:01.875Z,1930
2018-05-24T14:49:11.647Z,2035
2018-05-24T14:50:21.402Z,2095
2018-05-24T14:51:31.129Z,1945
2018-05-24T14:52:40.881Z,2065
2018-05-24T14:53:50.888Z,2010
2018-05-24T14:55:00.877Z,1960
2018-05-24T14:56:10.891Z,1830
2018-05-24T14:57:20.927Z,1890
2018-05-24T14:58:30.924Z,1870
2018-05-24T14:59:40.907Z,1925
2018-05-24T15:00:50.939Z,1965
2018-05-24T15:02:00.942Z,1875
2018-05-24T15:03:10.410Z,1830
2018-05-24T15:04:20.414Z,1735
2018-05-24T15:05:30.511Z,1610
2018-05-24T15:06:40.561Z,1710
2018-05-24T15:07:50.577Z,1655
2018-05-24T15:09:00.326Z,1655
2018-05-24T15:10:10.318Z,1635
2018-05-24T15:11:20.057Z,1665
2018-05-24T15:12:30.056Z,1685
2018-05-24T15:13:40.066Z,1800
2018-05-24T15:14:50.057Z,1790
2018-05-24T15:16:00.057Z,1820
2018-05-24T15:17:10.067Z,1685
2018-05-24T15:18:20.072Z,1775
2018-05-24T15:19:30.064Z,1960
2018-05-24T15:20:39.798Z,2040
2018-05-24T15:21:49.808Z,2035
2018-05-24T15:22:59.519Z,1950
2018-05-24T15:24:09.528Z,1980
2018-05-24T15:25:19.516Z,1935
2018-05-24T15:26:29.508Z,1975
2018-05-24T15:27:39.183Z,2070
2018-05-24T15:28:49.197Z,2105
2018-05-24T15:29:59.212Z,2095
2018-05-24T15:31:09.211Z,2105
2018-05-24T15:32:18.971Z,2040
2018-05-24T15:33:29.273Z,2035
2018-05-24T15:34:39.273Z,2010
2018-05-24T15:35:49.273Z,2010
2018-05-24T15:36:59.281Z,1990
2018-05-24T15:38:08.755Z,2045
2018-05-24T15:39:18.758Z,2070
2018-05-24T15:40:28.768Z,2025
2018-05-24T15:41:38.508Z,2005
2018-05-24T15:42:48.509Z,2065
2018-05-24T15:43:58.255Z,2065
2018-05-24T15:45:08.261Z,2150
2018-05-24T15:46:18.268Z,2155
2018-05-24T15:47:28.280Z,2165
2018-05-24T15:48:38.266Z,2120
2018-05-24T15:49:48.252Z,2095
2018-05-24T15:50:57.998Z,2120
2018-05-24T15:52:07.733Z,2175
2018-05-24T15:53:17.465Z,2150
2018-05-24T15:54:27.206Z,2140
2018-05-24T15:55:36.979Z,2085
2018-05-24T15:56:46.973Z,2040
2018-05-24T15:57:56.705Z,2065
2018-05-24T15:59:06.700Z,2165
2018-05-24T16:00:16.718Z,2165